createdAt,value
2023-03-03T00:04:17.168Z,61.57
2023-03-03T00:09:20.443Z,61.53
2023-03-03T00:14:32.239Z,61.86
2023-03-03T00:19:40.128Z,61.84
2023-03-03T00:24:43.871Z,62.32
2023-03-03T00:29:51.269Z,62.15
2023-03-03T00:35:06.287Z,62.14
2023-03-03T00:40:28.114Z,62.07
2023-03-03T00:45:39.110Z,62.10
2023-03-03T00:50:43.962Z,62.41
2023-03-03T00:55:49.115Z,62.19
2023-03-03T01:00:54.973Z,62.20
2023-03-03T01:06:01.814Z,62.33
2023-03-03T01:11:10.858Z,62.26
2023-03-03T01:16:14.934Z,62.48
2023-03-03T01:21:18.501Z,62.69
2023-03-03T01:26:21.994Z,62.65
2023-03-03T01:31:25.484Z,62.55
2023-03-03T01:36:29.609Z,62.71
2023-03-03T01:41:33.762Z,62.58
2023-03-03T01:46:40.464Z,62.30
2023-03-03T01:51:58.531Z,62.57
2023-03-03T01:57:07.146Z,62.69
2023-03-03T02:02:10.790Z,62.75
2023-03-03T02:07:16.472Z,62.82
2023-03-03T02:12:22.847Z,62.79
2023-03-03T02:17:26.469Z,62.99
2023-03-03T02:22:51.164Z,62.94
2023-03-03T02:27:54.715Z,62.89
2023-03-03T02:32:57.865Z,63.07
2023-03-03T02:38:27.950Z,63.00
2023-03-03T02:43:46.362Z,63.00
2023-03-03T02:48:49.729Z,63.27
2023-03-03T02:53:53.315Z,63.33
2023-03-03T02:58:57.126Z,63.30
2023-03-03T03:04:00.416Z,63.42
2023-03-03T03:09:06.494Z,63.52
2023-03-03T03:14:10.838Z,63.45
2023-03-03T03:19:15.221Z,63.64
2023-03-03T03:24:19.454Z,63.72
2023-03-03T03:29:28.789Z,63.82
2023-03-03T03:34:32.346Z,64.29
2023-03-03T03:39:36.802Z,63.98
2023-03-03T03:44:40.320Z,63.97
2023-03-03T03:49:43.523Z,63.77
2023-03-03T03:54:46.791Z,63.69
2023-03-03T03:59:50.578Z,63.96
2023-03-03T04:04:54.451Z,63.19
2023-03-03T04:09:57.744Z,63.24
2023-03-03T04:15:01.046Z,63.23
2023-03-03T04:20:07.123Z,63.20
2023-03-03T04:25:14.621Z,63.25
2023-03-03T04:30:19.027Z,63.40
2023-03-03T04:35:24.168Z,63.48
2023-03-03T04:40:28.220Z,63.89
2023-03-03T04:45:31.682Z,63.70
2023-03-03T04:50:35.575Z,63.33
2023-03-03T04:55:39.907Z,63.03
2023-03-03T05:00:43.393Z,63.06
2023-03-03T05:05:48.045Z,62.82
2023-03-03T05:10:55.461Z,62.90
2023-03-03T05:15:58.862Z,62.76
2023-03-03T05:21:02.368Z,62.71
2023-03-03T05:26:05.839Z,62.96
2023-03-03T05:31:09.186Z,63.29
2023-03-03T05:36:12.365Z,63.51
2023-03-03T05:41:15.496Z,63.85
2023-03-03T05:46:19.574Z,64.44
2023-03-03T05:51:22.960Z,64.79
2023-03-03T05:56:26.388Z,64.58
2023-03-03T06:01:29.904Z,65.01
2023-03-03T06:06:33.134Z,65.41
2023-03-03T06:11:37.781Z,65.11
2023-03-03T06:16:41.021Z,64.93
2023-03-03T06:21:44.333Z,64.79
2023-03-03T06:26:48.552Z,64.76
2023-03-03T06:31:52.495Z,64.51
2023-03-03T06:36:57.142Z,64.28
2023-03-03T06:42:00.340Z,64.18
2023-03-03T06:47:04.012Z,64.34
2023-03-03T06:52:23.170Z,64.10
2023-03-03T06:57:34.704Z,63.90
2023-03-03T07:02:37.984Z,63.63
2023-03-03T07:07:41.318Z,63.35
2023-03-03T07:12:44.658Z,63.13
2023-03-03T07:17:58.490Z,63.54
2023-03-03T07:23:14.667Z,63.52
2023-03-03T07:28:25.795Z,63.41
2023-03-03T07:33:38.347Z,63.72
2023-03-03T07:38:48.707Z,63.68
2023-03-03T07:44:05.589Z,63.42
2023-03-03T07:49:32.273Z,63.26
2023-03-03T07:54:38.522Z,63.09
2023-03-03T07:59:49.486Z,62.73
2023-03-03T08:04:53.193Z,62.81
2023-03-03T08:10:00.759Z,62.57
2023-03-03T08:15:23.724Z,62.50
2023-03-03T08:20:43.759Z,62.45
2023-03-03T08:25:48.602Z,62.29
2023-03-03T08:31:02.588Z,62.18
2023-03-03T08:36:13.268Z,62.27
2023-03-03T08:41:16.912Z,62.44
2023-03-03T08:46:20.363Z,62.08
2023-03-03T08:51:23.763Z,61.84
2023-03-03T08:56:27.668Z,62.15
2023-03-03T09:01:32.916Z,61.86
2023-03-03T09:06:36.512Z,61.84
2023-03-03T09:11:40.224Z,61.60
2023-03-03T09:16:52.506Z,61.63
2023-03-03T09:22:02.338Z,61.45
2023-03-03T09:27:33.399Z,61.07
2023-03-03T09:32:40.107Z,60.88
2023-03-03T09:37:44.741Z,60.95
2023-03-03T09:43:04.332Z,60.59
2023-03-03T09:48:30.743Z,60.87
2023-03-03T09:53:36.680Z,60.50
2023-03-03T09:59:01.613Z,60.49
2023-03-03T10:04:43.054Z,60.25
2023-03-03T10:09:55.385Z,60.48
2023-03-03T10:15:50.103Z,60.37
2023-03-03T10:21:22.260Z,60.42
2023-03-03T10:26:45.716Z,60.33
2023-03-03T10:32:01.413Z,60.94
2023-03-03T10:37:16.869Z,60.51
2023-03-03T10:42:43.490Z,60.24
2023-03-03T10:48:18.718Z,60.73
2023-03-03T10:53:33.254Z,60.10
2023-03-03T10:58:42.684Z,59.94
2023-03-03T11:04:21.745Z,59.78
2023-03-03T11:09:38.006Z,59.47
2023-03-03T11:15:00.479Z,59.16
2023-03-03T11:20:29.174Z,58.29
2023-03-03T11:25:35.489Z,57.90
2023-03-03T11:31:08.455Z,57.73
2023-03-03T11:36:20.902Z,57.54
2023-03-03T11:41:32.482Z,57.46
2023-03-03T11:46:46.761Z,57.58
2023-03-03T11:52:09.322Z,57.41
2023-03-03T11:57:12.842Z,57.31
2023-03-03T12:02:28.714Z,57.32
2023-03-03T12:07:47.910Z,57.28
2023-03-03T12:13:17.045Z,57.56
2023-03-03T12:19:03.247Z,57.73
2023-03-03T12:24:25.276Z,58.17
2023-03-03T12:29:31.262Z,58.05
2023-03-03T12:34:42.060Z,58.12
2023-03-03T12:39:51.350Z,57.63
2023-03-03T12:45:01.138Z,57.72
2023-03-03T12:50:10.501Z,57.70
2023-03-03T12:55:35.083Z,58.33
2023-03-03T13:01:16.516Z,57.96
2023-03-03T13:06:42.542Z,57.87
2023-03-03T13:12:16.146Z,58.29
2023-03-03T13:17:27.152Z,58.13
2023-03-03T13:22:50.617Z,58.17
2023-03-03T13:28:11.986Z,58.45
2023-03-03T13:33:18.998Z,58.23
2023-03-03T13:38:42.861Z,58.21
2023-03-03T13:44:09.836Z,58.07
2023-03-03T13:49:28.160Z,58.41
2023-03-03T13:54:49.417Z,59.26
2023-03-03T14:00:07.804Z,58.29
2023-03-03T14:05:28.810Z,57.91
2023-03-03T14:10:38.322Z,57.46
2023-03-03T14:15:47.530Z,57.45
2023-03-03T14:20:57.226Z,57.22
2023-03-03T14:26:11.788Z,56.89
2023-03-03T14:31:24.484Z,56.86
2023-03-03T14:36:35.924Z,57.13
2023-03-03T14:41:42.278Z,56.97
2023-03-03T14:46:45.931Z,57.33
2023-03-03T14:51:50.620Z,56.93
2023-03-03T14:57:12.370Z,56.95
2023-03-03T15:02:19.260Z,56.72
2023-03-03T15:07:26.599Z,56.40
2023-03-03T15:12:32.880Z,56.61
2023-03-03T15:17:44.706Z,56.51
2023-03-03T15:22:53.519Z,56.61
2023-03-03T15:28:18.118Z,56.57
2023-03-03T15:33:39.536Z,56.63
2023-03-03T15:38:49.336Z,56.75
2023-03-03T15:44:13.257Z,56.77
2023-03-03T15:49:48.421Z,56.88
2023-03-03T15:54:54.381Z,56.96
2023-03-03T15:59:57.558Z,56.74
2023-03-03T16:05:16.824Z,56.62
2023-03-03T16:10:54.904Z,56.83
2023-03-03T16:16:25.604Z,56.92
2023-03-03T16:21:55.349Z,56.32
2023-03-03T16:27:15.960Z,56.89
2023-03-03T16:32:50.958Z,56.77
2023-03-03T16:38:10.278Z,56.76
2023-03-03T16:43:51.444Z,56.76
2023-03-03T16:49:26.941Z,57.01
2023-03-03T16:54:59.830Z,56.71
2023-03-03T17:00:18.793Z,56.61
2023-03-03T17:05:48.045Z,56.39
2023-03-03T17:10:53.672Z,56.89
2023-03-03T17:16:18.534Z,56.78
2023-03-03T17:21:27.930Z,56.27
2023-03-03T17:26:44.360Z,56.40
2023-03-03T17:32:12.686Z,56.31
2023-03-03T17:37:42.948Z,57.23
2023-03-03T17:42:58.103Z,56.18
2023-03-03T17:48:13.709Z,56.13
2023-03-03T17:53:35.590Z,56.32
2023-03-03T17:58:57.452Z,56.32
2023-03-03T18:04:12.947Z,56.63
2023-03-03T18:09:22.136Z,56.70
2023-03-03T18:14:31.601Z,56.99
2023-03-03T18:20:06.283Z,57.28
2023-03-03T18:25:13.096Z,56.87
2023-03-03T18:30:24.903Z,57.68
2023-03-03T18:35:34.162Z,57.86
2023-03-03T18:40:51.036Z,57.37
2023-03-03T18:45:56.046Z,57.70
2023-03-03T18:50:59.810Z,57.89
2023-03-03T18:56:11.177Z,57.73
2023-03-03T19:01:44.195Z,57.88
2023-03-03T19:06:56.475Z,57.74
2023-03-03T19:11:59.932Z,58.34
2023-03-03T19:17:18.538Z,57.92
2023-03-03T19:22:29.972Z,57.89
2023-03-03T19:27:37.330Z,57.78
2023-03-03T19:33:00.292Z,57.79
2023-03-03T19:38:20.601Z,58.01
2023-03-03T19:43:35.496Z,58.48
2023-03-03T19:48:44.871Z,58.90
2023-03-03T19:53:53.957Z,58.79
2023-03-03T19:59:20.807Z,59.07
2023-03-03T20:04:52.475Z,59.09
2023-03-03T20:10:01.452Z,59.28
2023-03-03T20:15:24.284Z,59.68
2023-03-03T20:20:49.238Z,59.55
2023-03-03T20:25:56.780Z,59.88
2023-03-03T20:31:09.945Z,59.89
2023-03-03T20:36:20.187Z,60.09
2023-03-03T20:41:35.223Z,60.30
2023-03-03T20:47:01.748Z,60.41
2023-03-03T20:52:31.692Z,60.36
2023-03-03T20:57:48.022Z,60.87
2023-03-03T21:03:00.533Z,61.16
2023-03-03T21:08:05.663Z,61.60
2023-03-03T21:13:37.417Z,61.55
2023-03-03T21:18:40.776Z,61.86
2023-03-03T21:23:44.045Z,62.10
2023-03-03T21:29:03.448Z,62.42
2023-03-03T21:34:22.470Z,62.52
2023-03-03T21:39:26.043Z,62.32
2023-03-03T21:44:50.632Z,62.45
2023-03-03T21:49:54.008Z,62.15
2023-03-03T21:54:57.345Z,62.61
2023-03-03T22:00:00.749Z,62.61
2023-03-03T22:05:07.541Z,62.56
2023-03-03T22:10:11.477Z,62.56
2023-03-03T22:15:14.874Z,62.88
2023-03-03T22:20:18.134Z,62.60
2023-03-03T22:25:21.278Z,62.77
2023-03-03T22:30:24.563Z,63.03
2023-03-03T22:35:27.717Z,63.22
2023-03-03T22:40:32.154Z,63.33
2023-03-03T22:45:35.431Z,63.53
2023-03-03T22:50:40.472Z,63.31
2023-03-03T22:55:43.776Z,63.20
2023-03-03T23:00:48.610Z,63.36
2023-03-03T23:05:52.198Z,63.41
2023-03-03T23:10:55.702Z,63.68
2023-03-03T23:16:00.466Z,63.79
2023-03-03T23:21:04.232Z,63.92
2023-03-03T23:26:08.110Z,64.29
2023-03-03T23:31:11.571Z,64.55
2023-03-03T23:36:18.069Z,64.51
2023-03-03T23:41:21.440Z,64.70
2023-03-03T23:46:24.769Z,64.66
2023-03-03T23:51:27.933Z,64.59
2023-03-03T23:56:31.333Z,64.51
